createdAt,value
2019-05-11T00:00:50.499Z,92.32
2019-05-11T00:03:19.864Z,92.32
2019-05-11T00:05:48.732Z,92.25
2019-05-11T00:08:17.745Z,92.42
2019-05-11T00:10:46.732Z,92.48
2019-05-11T00:13:16.041Z,92.35
2019-05-11T00:15:45.036Z,92.35
2019-05-11T00:18:14.045Z,91.97
2019-05-11T00:20:43.337Z,91.69
2019-05-11T00:23:12.623Z,91.74
2019-05-11T00:25:41.547Z,91.61
2019-05-11T00:28:10.843Z,92.02
2019-05-11T00:30:39.552Z,92.02
2019-05-11T00:33:08.509Z,92.60
2019-05-11T00:35:37.547Z,92.77
2019-05-11T00:38:06.179Z,92.98
2019-05-11T00:40:34.883Z,92.98
2019-05-11T00:43:03.682Z,92.38
2019-05-11T00:45:32.318Z,92.38
2019-05-11T00:48:01.540Z,92.11
2019-05-11T00:50:38.941Z,92.01
2019-05-11T00:53:00.648Z,92.03
2019-05-11T00:55:29.315Z,92.03
2019-05-11T00:57:58.219Z,92.28
2019-05-11T01:00:27.528Z,92.36
2019-05-11T01:02:56.773Z,92.44
2019-05-11T01:05:25.443Z,92.69
2019-05-11T01:07:54.523Z,92.68
2019-05-11T01:10:33.798Z,92.68
2019-05-11T01:12:53.559Z,92.12
2019-05-11T01:15:22.591Z,92.49
2019-05-11T01:17:51.538Z,92.49
2019-05-11T01:20:20.602Z,92.52
2019-05-11T01:22:49.255Z,92.52
2019-05-11T01:25:17.906Z,92.77
2019-05-11T01:27:46.866Z,92.78
2019-05-11T01:30:15.712Z,92.89
2019-05-11T01:32:44.347Z,93.07
2019-05-11T01:35:13.049Z,93.07
2019-05-11T01:37:42.354Z,93.08
2019-05-11T01:40:11.275Z,93.02
2019-05-11T01:42:40.525Z,92.85
2019-05-11T01:45:09.444Z,92.85
2019-05-11T01:47:38.452Z,92.33
2019-05-11T01:50:07.816Z,92.54
2019-05-11T01:52:36.815Z,92.45
2019-05-11T01:55:05.724Z,92.38
2019-05-11T01:57:34.623Z,93.09
2019-05-11T02:00:04.093Z,92.53
2019-05-11T02:02:35.194Z,92.53
2019-05-11T02:05:22.352Z,92.56
2019-05-11T02:07:51.352Z,92.40
2019-05-11T02:10:20.075Z,92.77
2019-05-11T02:12:48.726Z,93.03
2019-05-11T02:15:17.720Z,93.02
2019-05-11T02:17:46.355Z,92.96
2019-05-11T02:20:15.807Z,92.91
2019-05-11T02:22:44.441Z,93.09
2019-05-11T02:25:14.512Z,93.09
2019-05-11T02:27:43.529Z,92.91
2019-05-11T02:30:12.512Z,92.94
2019-05-11T02:32:41.495Z,92.75
2019-05-11T02:35:10.238Z,92.83
2019-05-11T02:37:39.178Z,92.66
2019-05-11T02:40:07.998Z,92.58
2019-05-11T02:42:37.102Z,92.43
2019-05-11T02:45:06.825Z,92.35
2019-05-11T02:47:35.775Z,92.39
2019-05-11T02:50:05.174Z,92.62
2019-05-11T02:52:34.771Z,92.29
2019-05-11T02:55:03.600Z,92.29
2019-05-11T02:57:32.555Z,92.29
2019-05-11T03:00:01.969Z,92.24
2019-05-11T03:02:30.578Z,92.40
2019-05-11T03:05:00.463Z,92.15
2019-05-11T03:07:29.668Z,92.85
2019-05-11T03:09:58.852Z,92.85
2019-05-11T03:12:27.857Z,92.29
2019-05-11T03:14:56.855Z,92.36
2019-05-11T03:17:30.040Z,91.45
2019-05-11T03:19:59.236Z,91.50
2019-05-11T03:22:28.549Z,91.60
2019-05-11T03:24:57.427Z,90.97
2019-05-11T03:27:26.339Z,91.00
2019-05-11T03:30:00.021Z,91.30
2019-05-11T03:32:25.679Z,91.47
2019-05-11T03:34:54.648Z,91.89
2019-05-11T03:37:23.302Z,91.65
2019-05-11T03:39:51.918Z,91.64
2019-05-11T03:42:21.198Z,91.58
2019-05-11T03:44:49.824Z,91.83
2019-05-11T03:47:18.466Z,92.04
2019-05-11T03:49:47.976Z,91.98
2019-05-11T03:52:16.673Z,91.82
2019-05-11T03:54:45.557Z,91.40
2019-05-11T03:57:14.558Z,91.41
2019-05-11T03:59:43.521Z,91.21
2019-05-11T04:02:12.435Z,90.70
2019-05-11T04:04:41.455Z,90.45
2019-05-11T04:07:10.425Z,90.13
2019-05-11T04:09:39.130Z,89.97
2019-05-11T04:12:08.107Z,90.14
2019-05-11T04:14:37.297Z,89.99
2019-05-11T04:17:06.603Z,90.29
2019-05-11T04:19:35.246Z,90.46
2019-05-11T04:22:04.282Z,90.44
2019-05-11T04:24:32.946Z,90.51
2019-05-11T04:27:02.481Z,90.47
2019-05-11T04:29:31.454Z,90.07
2019-05-11T04:32:00.088Z,90.07
2019-05-11T04:34:29.044Z,89.87
2019-05-11T04:36:58.241Z,89.87
2019-05-11T04:39:27.443Z,89.70
2019-05-11T04:41:56.059Z,89.57
2019-05-11T04:44:24.710Z,89.44
2019-05-11T04:46:54.008Z,89.80
2019-05-11T04:49:22.651Z,90.01
2019-05-11T04:51:51.589Z,89.80
2019-05-11T04:54:20.237Z,89.75
2019-05-11T04:56:49.186Z,89.75
2019-05-11T04:59:18.770Z,88.33
2019-05-11T05:01:48.074Z,87.49
2019-05-11T05:04:16.806Z,87.55
2019-05-11T05:06:58.946Z,87.85
2019-05-11T05:09:16.149Z,87.85
2019-05-11T05:11:44.798Z,87.85
2019-05-11T05:14:13.774Z,87.92
2019-05-11T05:16:42.426Z,88.12
2019-05-11T05:19:12.038Z,88.12
2019-05-11T05:21:40.688Z,87.79
2019-05-11T05:24:09.320Z,87.66
2019-05-11T05:26:37.977Z,87.82
2019-05-11T05:29:06.927Z,87.82
2019-05-11T05:31:37.021Z,88.30
2019-05-11T05:34:05.664Z,88.30
2019-05-11T05:36:34.601Z,87.63
2019-05-11T05:39:03.742Z,87.66
2019-05-11T05:41:32.996Z,87.66
2019-05-11T05:44:01.891Z,89.41
2019-05-11T05:46:31.073Z,88.90
2019-05-11T05:49:00.077Z,88.90
2019-05-11T05:51:29.052Z,89.72
2019-05-11T05:53:58.581Z,89.78
2019-05-11T05:56:27.570Z,90.19
2019-05-11T05:58:56.246Z,90.19
2019-05-11T06:01:25.470Z,90.49
2019-05-11T06:03:54.762Z,90.31
2019-05-11T06:06:23.749Z,82.49
2019-05-11T06:08:52.957Z,82.49
2019-05-11T06:11:21.602Z,82.65
2019-05-11T06:13:50.849Z,81.90
2019-05-11T06:16:19.599Z,79.39
2019-05-11T06:18:48.529Z,77.75
2019-05-11T06:21:17.167Z,77.80
2019-05-11T06:23:45.822Z,76.90
2019-05-11T06:26:15.106Z,74.96
2019-05-11T06:28:44.389Z,75.46
2019-05-11T06:31:13.283Z,73.62
2019-05-11T06:33:42.172Z,73.28
2019-05-11T06:36:10.837Z,73.40
2019-05-11T06:38:39.462Z,73.19
2019-05-11T06:41:08.440Z,73.16
2019-05-11T06:43:37.471Z,71.94
2019-05-11T06:46:06.733Z,71.77
2019-05-11T06:48:35.619Z,71.52
2019-05-11T06:51:04.283Z,71.18
2019-05-11T06:53:32.918Z,69.49
2019-05-11T06:56:01.558Z,69.76
2019-05-11T06:58:30.189Z,69.52
2019-05-11T07:00:59.155Z,69.42
2019-05-11T07:03:28.052Z,67.75
2019-05-11T07:05:57.260Z,67.79
2019-05-11T07:08:25.865Z,67.24
2019-05-11T07:10:55.136Z,67.30
2019-05-11T07:13:24.152Z,67.99
2019-05-11T07:15:53.427Z,66.79
2019-05-11T07:18:22.074Z,67.05
2019-05-11T07:20:51.163Z,66.83
2019-05-11T07:23:20.301Z,67.16
2019-05-11T07:25:48.901Z,65.65
2019-05-11T07:28:17.632Z,65.08
2019-05-11T07:30:46.278Z,64.48
2019-05-11T07:33:14.904Z,64.48
2019-05-11T07:35:43.861Z,63.14
2019-05-11T07:38:12.468Z,63.02
2019-05-11T07:40:41.427Z,62.01
2019-05-11T07:43:10.868Z,61.96
2019-05-11T07:45:39.920Z,61.15
2019-05-11T07:48:09.113Z,62.02
2019-05-11T07:50:38.851Z,61.61
2019-05-11T07:53:08.378Z,60.68
2019-05-11T07:55:38.487Z,60.85
2019-05-11T07:58:08.086Z,60.45
2019-05-11T08:00:39.805Z,61.25
2019-05-11T08:03:09.035Z,60.06
2019-05-11T08:05:38.732Z,60.53
2019-05-11T08:08:08.680Z,60.12
2019-05-11T08:10:39.019Z,59.07
2019-05-11T08:13:09.183Z,59.71
2019-05-11T08:15:38.442Z,60.79
2019-05-11T08:18:08.543Z,60.84
2019-05-11T08:20:38.509Z,59.42
2019-05-11T08:23:09.159Z,58.88
2019-05-11T08:25:38.460Z,57.43
2019-05-11T08:28:14.379Z,59.39
2019-05-11T08:30:43.306Z,59.88
2019-05-11T08:33:12.609Z,59.28
2019-05-11T08:35:41.320Z,59.62
2019-05-11T08:38:09.956Z,59.64
2019-05-11T08:40:38.677Z,59.62
2019-05-11T08:43:08.789Z,57.94
2019-05-11T08:45:39.281Z,57.64
2019-05-11T08:48:08.610Z,56.54
2019-05-11T08:50:38.256Z,53.11
2019-05-11T08:53:08.623Z,53.53
2019-05-11T08:55:38.312Z,54.95
2019-05-11T08:58:07.973Z,54.05
2019-05-11T09:00:38.928Z,54.11
2019-05-11T09:03:08.705Z,52.19
2019-05-11T09:05:38.409Z,53.49
2019-05-11T09:08:08.309Z,52.97
2019-05-11T09:10:39.705Z,53.54
2019-05-11T09:13:08.108Z,52.01
2019-05-11T09:15:40.452Z,52.92
2019-05-11T09:18:08.517Z,53.01
2019-05-11T09:20:38.000Z,53.01
2019-05-11T09:23:08.243Z,52.78
2019-05-11T09:25:38.463Z,52.50
2019-05-11T09:28:08.608Z,53.87
2019-05-11T09:30:37.892Z,54.84
2019-05-11T09:33:08.580Z,52.74
2019-05-11T09:35:47.553Z,51.46
2019-05-11T09:38:08.410Z,52.12
2019-05-11T09:40:38.603Z,51.88
2019-05-11T09:43:08.644Z,51.08
2019-05-11T09:45:48.125Z,49.85
2019-05-11T09:48:08.739Z,49.48
2019-05-11T09:50:38.817Z,50.53
2019-05-11T09:53:08.525Z,49.41
2019-05-11T09:55:39.002Z,47.75
2019-05-11T09:58:08.508Z,43.68
2019-05-11T10:00:38.809Z,46.72
2019-05-11T10:03:08.316Z,48.83
2019-05-11T10:05:38.420Z,48.80
2019-05-11T10:08:07.933Z,49.12
2019-05-11T10:10:38.379Z,51.71
2019-05-11T10:13:08.107Z,50.25
2019-05-11T10:15:38.504Z,49.54
2019-05-11T10:18:08.190Z,46.75
2019-05-11T10:20:39.018Z,47.85
2019-05-11T10:23:08.372Z,48.01
2019-05-11T10:25:39.080Z,49.76
2019-05-11T10:28:08.695Z,52.62
2019-05-11T10:30:38.591Z,50.10
2019-05-11T10:33:08.402Z,46.36
2019-05-11T10:35:37.856Z,48.67
2019-05-11T10:38:09.002Z,48.27
2019-05-11T10:40:38.772Z,46.92
2019-05-11T10:43:08.048Z,48.39
2019-05-11T10:45:37.910Z,49.02
2019-05-11T10:48:08.739Z,47.99
2019-05-11T10:50:38.073Z,47.65
2019-05-11T10:53:08.003Z,47.68
2019-05-11T10:55:38.617Z,47.32
2019-05-11T10:58:08.625Z,35.70
2019-05-11T11:00:38.830Z,41.61
2019-05-11T11:03:08.559Z,44.69
2019-05-11T11:05:38.458Z,43.93
2019-05-11T11:08:08.422Z,44.06
2019-05-11T11:10:37.886Z,45.86
2019-05-11T11:13:08.433Z,41.42
2019-05-11T11:15:38.222Z,44.71
2019-05-11T11:18:08.592Z,45.50
2019-05-11T11:20:38.473Z,45.44
2019-05-11T11:23:08.784Z,44.11
2019-05-11T11:25:37.874Z,45.89
2019-05-11T11:28:08.449Z,45.66
2019-05-11T11:30:37.954Z,46.42
2019-05-11T11:33:07.962Z,45.63
2019-05-11T11:35:38.548Z,44.23
2019-05-11T11:38:08.698Z,43.88
2019-05-11T11:40:38.738Z,47.36
2019-05-11T11:43:08.695Z,45.04
2019-05-11T11:45:38.087Z,44.51
2019-05-11T11:48:08.639Z,45.60
2019-05-11T11:50:37.915Z,44.81
2019-05-11T11:53:08.368Z,45.51
2019-05-11T11:55:38.860Z,45.59
2019-05-11T11:58:08.420Z,45.04
2019-05-11T12:00:39.137Z,46.44
2019-05-11T12:03:08.196Z,44.82
2019-05-11T12:05:38.652Z,44.64
2019-05-11T12:08:08.421Z,43.74
2019-05-11T12:10:38.033Z,45.73
2019-05-11T12:13:08.701Z,47.00
2019-05-11T12:15:38.748Z,45.77
2019-05-11T12:18:08.347Z,43.68
2019-05-11T12:20:39.006Z,45.01
2019-05-11T12:23:08.766Z,48.19
2019-05-11T12:25:40.355Z,47.78
2019-05-11T12:28:08.218Z,47.80
2019-05-11T12:30:37.689Z,48.38
2019-05-11T12:33:08.276Z,45.22
2019-05-11T12:35:37.759Z,46.09
2019-05-11T12:38:07.848Z,45.28
2019-05-11T12:40:38.936Z,45.98
2019-05-11T12:43:08.326Z,46.81
2019-05-11T12:45:37.713Z,43.63
2019-05-11T12:48:08.921Z,46.53
2019-05-11T12:50:37.871Z,47.25
2019-05-11T12:53:08.008Z,46.62
2019-05-11T12:55:37.953Z,45.01
2019-05-11T12:58:08.553Z,45.54
2019-05-11T13:00:39.167Z,43.90
2019-05-11T13:03:08.375Z,44.95
2019-05-11T13:05:37.882Z,44.34
2019-05-11T13:08:07.979Z,44.59
2019-05-11T13:10:37.613Z,43.46
2019-05-11T13:13:08.842Z,45.21
2019-05-11T13:15:38.723Z,46.40
2019-05-11T13:18:08.503Z,44.23
2019-05-11T13:20:37.832Z,45.50
2019-05-11T13:23:07.990Z,44.29
2019-05-11T13:25:38.800Z,44.03
2019-05-11T13:28:08.565Z,42.55
2019-05-11T13:30:38.269Z,43.19
2019-05-11T13:33:08.603Z,41.11
2019-05-11T13:35:37.751Z,42.37
2019-05-11T13:38:08.728Z,45.28
2019-05-11T13:40:38.189Z,45.35
2019-05-11T13:43:08.307Z,46.13
2019-05-11T13:45:38.714Z,45.58
2019-05-11T13:48:08.554Z,47.54
2019-05-11T13:50:38.653Z,43.26
2019-05-11T13:53:07.866Z,45.31
2019-05-11T13:55:38.818Z,45.64
2019-05-11T13:58:08.339Z,45.53
2019-05-11T14:00:38.063Z,44.63
2019-05-11T14:03:08.593Z,44.72
2019-05-11T14:05:37.988Z,43.62
2019-05-11T14:08:08.096Z,42.60
2019-05-11T14:10:38.366Z,42.19
2019-05-11T14:13:08.903Z,43.79
2019-05-11T14:15:37.839Z,43.17
2019-05-11T14:18:09.384Z,42.34
2019-05-11T14:20:37.971Z,44.69
2019-05-11T14:23:07.690Z,44.30
2019-05-11T14:25:38.054Z,44.12
2019-05-11T14:28:08.904Z,43.46
2019-05-11T14:30:38.695Z,43.58
2019-05-11T14:33:08.774Z,43.83
2019-05-11T14:35:38.555Z,41.88
2019-05-11T14:38:08.110Z,40.46
2019-05-11T14:40:38.752Z,40.64
2019-05-11T14:43:08.376Z,41.37
2019-05-11T14:45:38.234Z,39.56
2019-05-11T14:48:22.601Z,41.82
2019-05-11T14:50:39.405Z,37.74
2019-05-11T14:53:08.734Z,37.69
2019-05-11T14:55:38.136Z,38.02
2019-05-11T14:58:08.349Z,38.59
2019-05-11T15:00:39.174Z,36.48
2019-05-11T15:03:08.830Z,38.20
2019-05-11T15:05:41.137Z,38.07
2019-05-11T15:08:08.760Z,38.87
2019-05-11T15:10:38.307Z,37.32
2019-05-11T15:13:08.086Z,38.91
2019-05-11T15:15:39.224Z,38.46
2019-05-11T15:18:08.516Z,38.99
2019-05-11T15:20:38.900Z,38.92
2019-05-11T15:23:08.801Z,38.71
2019-05-11T15:25:38.347Z,40.90
2019-05-11T15:28:08.950Z,41.75
2019-05-11T15:30:38.187Z,40.70
2019-05-11T15:33:07.850Z,40.16
2019-05-11T15:35:37.742Z,40.33
2019-05-11T15:38:08.692Z,41.20
2019-05-11T15:40:38.490Z,41.62
2019-05-11T15:43:08.785Z,42.12
2019-05-11T15:45:38.265Z,43.10
2019-05-11T15:48:08.408Z,41.27
2019-05-11T15:50:39.892Z,41.35
2019-05-11T15:53:08.764Z,41.40
2019-05-11T15:55:42.255Z,41.50
2019-05-11T15:58:09.322Z,41.30
2019-05-11T16:00:40.051Z,40.71
2019-05-11T16:03:08.674Z,39.28
2019-05-11T16:05:37.374Z,40.60
2019-05-11T16:08:08.394Z,40.67
2019-05-11T16:10:38.414Z,40.70
2019-05-11T16:13:09.237Z,40.50
2019-05-11T16:15:38.376Z,41.12
2019-05-11T16:18:08.322Z,41.26
2019-05-11T16:20:37.150Z,42.31
2019-05-11T16:23:05.805Z,42.48
2019-05-11T16:25:34.799Z,41.50
2019-05-11T16:28:03.444Z,41.95
2019-05-11T16:30:32.379Z,41.18
2019-05-11T16:33:01.363Z,43.75
2019-05-11T16:35:30.355Z,43.84
2019-05-11T16:37:59.416Z,46.05
2019-05-11T16:40:29.509Z,47.55
2019-05-11T16:42:58.868Z,49.49
2019-05-11T16:45:28.328Z,51.24
2019-05-11T16:47:58.870Z,50.64
2019-05-11T16:50:28.293Z,50.53
2019-05-11T16:52:58.477Z,49.90
2019-05-11T16:55:27.504Z,48.76
2019-05-11T16:57:58.620Z,48.21
2019-05-11T17:00:27.160Z,48.06
2019-05-11T17:02:57.695Z,48.42
2019-05-11T17:05:33.187Z,48.41
2019-05-11T17:07:58.716Z,47.66
2019-05-11T17:10:28.524Z,48.37
2019-05-11T17:12:58.167Z,47.80
2019-05-11T17:15:28.914Z,47.91
2019-05-11T17:17:58.777Z,47.78
2019-05-11T17:20:27.949Z,47.49
2019-05-11T17:22:56.598Z,46.44
2019-05-11T17:25:25.595Z,47.87
2019-05-11T17:27:54.315Z,48.50
2019-05-11T17:30:22.950Z,48.79
2019-05-11T17:32:51.579Z,48.99
2019-05-11T17:35:20.519Z,48.48
2019-05-11T17:37:49.212Z,49.27
2019-05-11T17:40:22.810Z,48.66
2019-05-11T17:42:48.944Z,49.62
2019-05-11T17:45:18.879Z,48.57
2019-05-11T17:47:48.066Z,49.91
2019-05-11T17:50:19.124Z,49.95
2019-05-11T17:52:48.011Z,51.08
2019-05-11T17:55:18.461Z,50.84
2019-05-11T17:57:49.578Z,51.65
2019-05-11T18:00:20.135Z,50.77
2019-05-11T18:02:49.242Z,50.25
2019-05-11T18:05:18.269Z,50.59
2019-05-11T18:07:47.494Z,51.20
2019-05-11T18:10:18.580Z,51.64
2019-05-11T18:12:48.592Z,51.84
2019-05-11T18:15:18.771Z,53.28
2019-05-11T18:17:48.648Z,53.74
2019-05-11T18:20:21.416Z,53.05
2019-05-11T18:22:49.117Z,55.07
2019-05-11T18:25:18.572Z,54.85
2019-05-11T18:27:48.420Z,55.09
2019-05-11T18:30:18.346Z,55.93
2019-05-11T18:32:49.088Z,57.00
2019-05-11T18:35:19.364Z,57.83
2019-05-11T18:37:48.191Z,58.69
2019-05-11T18:40:18.747Z,59.66
2019-05-11T18:42:48.717Z,61.11
2019-05-11T18:45:18.891Z,62.90
2019-05-11T18:47:49.011Z,63.54
2019-05-11T18:50:29.973Z,62.93
2019-05-11T18:52:49.357Z,64.13
2019-05-11T18:55:19.184Z,64.34
2019-05-11T18:57:49.031Z,64.24
2019-05-11T19:00:18.821Z,64.90
2019-05-11T19:02:49.503Z,65.85
2019-05-11T19:05:18.292Z,66.31
2019-05-11T19:07:48.171Z,66.61
2019-05-11T19:10:17.194Z,67.36
2019-05-11T19:12:48.424Z,67.27
2019-05-11T19:15:18.741Z,68.60
2019-05-11T19:17:48.993Z,68.66
2019-05-11T19:20:18.283Z,68.90
2019-05-11T19:22:47.194Z,69.89
2019-05-11T19:25:18.112Z,69.99
2019-05-11T19:27:50.353Z,70.29
2019-05-11T19:30:18.461Z,71.05
2019-05-11T19:32:48.701Z,70.88
2019-05-11T19:35:20.953Z,70.99
2019-05-11T19:37:48.892Z,71.65
2019-05-11T19:40:17.591Z,72.26
2019-05-11T19:42:58.743Z,72.12
2019-05-11T19:45:29.070Z,72.22
2019-05-11T19:47:57.940Z,73.61
2019-05-11T19:50:26.824Z,73.30
2019-05-11T19:52:57.776Z,73.07
2019-05-11T19:55:28.527Z,72.98
2019-05-11T19:57:57.593Z,72.84
2019-05-11T20:00:26.290Z,73.31
2019-05-11T20:02:54.928Z,73.17
2019-05-11T20:05:23.614Z,73.58
2019-05-11T20:07:52.484Z,73.32
2019-05-11T20:10:21.119Z,73.16
2019-05-11T20:12:49.832Z,72.95
2019-05-11T20:15:19.305Z,73.28
2019-05-11T20:17:49.146Z,74.39
2019-05-11T20:20:18.642Z,74.48
2019-05-11T20:22:48.537Z,74.71
2019-05-11T20:25:18.923Z,74.66
2019-05-11T20:27:48.866Z,74.81
2019-05-11T20:30:19.376Z,75.04
2019-05-11T20:32:49.157Z,75.15
2019-05-11T20:35:18.124Z,75.52
2019-05-11T20:37:47.025Z,75.46
2019-05-11T20:40:18.073Z,75.75
2019-05-11T20:42:49.151Z,76.37
2019-05-11T20:45:18.821Z,76.47
2019-05-11T20:47:48.672Z,76.84
2019-05-11T20:50:18.557Z,77.05
2019-05-11T20:52:48.278Z,77.22
2019-05-11T20:55:18.203Z,77.48
2019-05-11T20:57:48.705Z,77.30
2019-05-11T21:00:18.729Z,77.02
2019-05-11T21:02:48.963Z,76.66
2019-05-11T21:05:18.377Z,76.16
2019-05-11T21:07:47.771Z,75.31
2019-05-11T21:10:17.454Z,74.10
2019-05-11T21:12:46.449Z,72.37
2019-05-11T21:15:16.260Z,71.14
2019-05-11T21:17:44.928Z,71.03
2019-05-11T21:20:13.614Z,69.88
2019-05-11T21:22:42.857Z,68.60
2019-05-11T21:25:11.711Z,67.54
2019-05-11T21:27:41.032Z,67.38
2019-05-11T21:30:10.344Z,67.49
2019-05-11T21:32:39.167Z,66.86
2019-05-11T21:35:08.967Z,65.68
2019-05-11T21:37:38.889Z,65.55
2019-05-11T21:40:09.346Z,65.56
2019-05-11T21:42:39.182Z,64.78
2019-05-11T21:45:09.430Z,64.10
2019-05-11T21:47:39.810Z,63.76
2019-05-11T21:50:08.815Z,63.43
2019-05-11T21:52:38.620Z,63.07
2019-05-11T21:55:09.982Z,62.95
2019-05-11T21:57:38.829Z,63.26
2019-05-11T22:00:09.364Z,62.89
2019-05-11T22:02:39.042Z,63.76
2019-05-11T22:05:08.794Z,64.21
2019-05-11T22:07:38.706Z,64.41
2019-05-11T22:10:09.974Z,64.86
2019-05-11T22:12:39.503Z,64.73
2019-05-11T22:15:09.371Z,64.16
2019-05-11T22:17:39.593Z,64.29
2019-05-11T22:20:09.029Z,65.04
2019-05-11T22:22:39.030Z,65.17
2019-05-11T22:25:08.434Z,64.91
2019-05-11T22:27:38.903Z,65.51
2019-05-11T22:30:08.738Z,65.85
2019-05-11T22:32:38.771Z,66.17
2019-05-11T22:35:08.897Z,66.33
2019-05-11T22:37:38.563Z,66.38
2019-05-11T22:40:08.942Z,66.56
2019-05-11T22:42:37.872Z,66.48
2019-05-11T22:45:08.564Z,66.07
2019-05-11T22:47:39.287Z,64.35
2019-05-11T22:50:08.437Z,63.02
2019-05-11T22:52:39.716Z,62.17
2019-05-11T22:55:11.580Z,62.09
2019-05-11T22:57:38.704Z,62.36
2019-05-11T23:00:08.170Z,62.59
2019-05-11T23:02:38.049Z,62.46
2019-05-11T23:05:08.532Z,62.94
2019-05-11T23:07:41.093Z,63.84
2019-05-11T23:10:08.833Z,65.30
2019-05-11T23:12:38.753Z,65.90
2019-05-11T23:15:12.894Z,65.89
2019-05-11T23:17:42.148Z,64.49
2019-05-11T23:20:11.736Z,64.17
2019-05-11T23:22:57.792Z,63.83
2019-05-11T23:25:20.355Z,64.10
2019-05-11T23:27:49.230Z,64.36
2019-05-11T23:30:19.771Z,64.51
2019-05-11T23:32:49.168Z,65.30
2019-05-11T23:35:19.065Z,65.15
2019-05-11T23:37:49.424Z,65.71
2019-05-11T23:40:19.221Z,65.81
2019-05-11T23:42:48.988Z,66.70
2019-05-11T23:45:19.252Z,67.10
2019-05-11T23:47:49.027Z,67.17
2019-05-11T23:50:19.120Z,67.73
2019-05-11T23:52:50.237Z,68.05
2019-05-11T23:55:19.343Z,67.45
2019-05-11T23:57:48.848Z,67.50
